createdAt,value
2022-12-18T00:01:46.549Z,41.10
2022-12-18T00:04:20.592Z,35.40
2022-12-18T00:06:51.442Z,37.40
2022-12-18T00:09:22.700Z,37.60
2022-12-18T00:11:55.649Z,32.60
2022-12-18T00:14:28.042Z,33.80
2022-12-18T00:17:01.745Z,32.70
2022-12-18T00:22:01.770Z,36.30
2022-12-18T00:24:33.160Z,34.50
2022-12-18T00:27:04.876Z,31.70
2022-12-18T00:29:35.717Z,35.50
2022-12-18T00:32:06.699Z,31.60
2022-12-18T00:34:37.709Z,33.90
2022-12-18T00:37:08.341Z,31.90
2022-12-18T00:39:39.112Z,37.60
2022-12-18T00:42:28.018Z,32.30
2022-12-18T00:44:59.076Z,33.50
2022-12-18T00:47:29.720Z,33.10
2022-12-18T00:50:00.371Z,33.20
2022-12-18T00:52:31.366Z,33.00
2022-12-18T00:55:06.207Z,35.40
2022-12-18T00:57:37.489Z,38.50
2022-12-18T01:00:10.087Z,32.60
2022-12-18T01:02:41.019Z,32.10
2022-12-18T01:05:12.205Z,32.40
2022-12-18T01:07:42.964Z,30.50
2022-12-18T01:10:14.790Z,31.00
2022-12-18T01:12:45.536Z,34.30
2022-12-18T01:15:17.287Z,35.20
2022-12-18T01:17:48.019Z,37.30
2022-12-18T01:20:18.550Z,34.10
2022-12-18T01:22:50.051Z,33.90
2022-12-18T01:25:20.726Z,30.90
2022-12-18T01:27:51.536Z,34.00
2022-12-18T01:30:22.192Z,34.80
2022-12-18T01:32:52.953Z,35.90
2022-12-18T01:35:23.821Z,34.30
2022-12-18T01:37:57.684Z,31.90
2022-12-18T01:42:58.787Z,32.40
2022-12-18T01:45:31.945Z,34.80
2022-12-18T01:48:03.936Z,34.50
2022-12-18T01:50:36.399Z,37.30
2022-12-18T01:53:08.558Z,32.40
2022-12-18T01:55:40.894Z,30.70
2022-12-18T01:58:11.821Z,31.20
2022-12-18T02:00:42.935Z,36.10
2022-12-18T02:03:13.997Z,30.80
2022-12-18T02:05:48.549Z,31.80
2022-12-18T02:08:22.830Z,32.90
2022-12-18T02:10:59.319Z,32.50
2022-12-18T02:13:33.340Z,29.50
2022-12-18T02:16:09.142Z,30.50
2022-12-18T02:18:42.071Z,32.50
2022-12-18T02:21:17.679Z,32.30
2022-12-18T02:23:55.817Z,34.30
2022-12-18T02:26:30.074Z,32.30
2022-12-18T02:29:03.022Z,33.90
2022-12-18T02:31:41.042Z,33.30
2022-12-18T02:34:12.579Z,33.90
2022-12-18T02:36:44.649Z,32.20
2022-12-18T02:39:16.184Z,30.90
2022-12-18T02:41:57.001Z,31.90
2022-12-18T02:44:28.306Z,31.30
2022-12-18T02:46:58.937Z,34.80
2022-12-18T02:49:34.434Z,32.10
2022-12-18T02:52:08.410Z,27.80
2022-12-18T02:54:47.625Z,30.40
2022-12-18T02:57:20.964Z,30.90
2022-12-18T02:59:57.185Z,33.40
2022-12-18T03:02:29.544Z,35.30
2022-12-18T03:05:03.461Z,30.20
2022-12-18T03:07:38.002Z,32.20
2022-12-18T03:10:14.040Z,34.80
2022-12-18T03:12:46.242Z,33.80
2022-12-18T03:15:19.706Z,32.00
2022-12-18T03:17:55.152Z,33.10
2022-12-18T03:20:32.339Z,34.00
2022-12-18T03:23:06.577Z,31.60
2022-12-18T03:25:38.841Z,31.30
2022-12-18T03:28:12.572Z,28.80
2022-12-18T03:30:44.459Z,31.10
2022-12-18T03:33:19.099Z,31.40
2022-12-18T03:35:50.185Z,31.40
2022-12-18T03:38:21.760Z,34.60
2022-12-18T03:41:00.925Z,29.60
2022-12-18T03:43:37.702Z,26.80
2022-12-18T03:46:12.069Z,29.40
2022-12-18T03:48:45.743Z,32.10
2022-12-18T03:51:21.171Z,32.90
2022-12-18T03:53:56.097Z,29.60
2022-12-18T03:56:30.880Z,33.30
2022-12-18T03:59:03.944Z,29.60
2022-12-18T04:01:36.397Z,31.80
2022-12-18T04:04:08.593Z,32.80
2022-12-18T04:06:41.039Z,31.60
2022-12-18T04:09:12.219Z,31.40
2022-12-18T04:14:18.281Z,32.30
2022-12-18T04:16:52.049Z,32.70
2022-12-18T04:19:25.547Z,30.50
2022-12-18T04:21:56.683Z,30.50
2022-12-18T04:24:27.625Z,31.40
2022-12-18T04:27:07.147Z,33.60
2022-12-18T04:29:44.636Z,33.80
2022-12-18T04:32:15.214Z,31.10
2022-12-18T04:34:46.868Z,32.80
2022-12-18T04:37:17.307Z,30.30
2022-12-18T04:39:48.309Z,29.10
2022-12-18T04:42:24.367Z,30.80
2022-12-18T04:44:55.104Z,28.30
2022-12-18T04:47:25.528Z,28.50
2022-12-18T04:49:56.360Z,30.40
2022-12-18T04:52:27.398Z,30.90
2022-12-18T04:54:57.961Z,30.90
2022-12-18T04:57:28.714Z,30.60
2022-12-18T04:59:59.093Z,27.80
2022-12-18T05:02:29.795Z,28.70
2022-12-18T05:05:00.757Z,31.90
2022-12-18T05:07:31.744Z,27.00
2022-12-18T05:10:02.183Z,29.30
2022-12-18T05:12:32.967Z,30.10
2022-12-18T05:15:06.626Z,30.80
2022-12-18T05:17:37.408Z,28.30
2022-12-18T05:20:09.073Z,28.90
2022-12-18T05:22:39.784Z,31.30
2022-12-18T05:25:11.023Z,28.10
2022-12-18T05:27:42.581Z,30.00
2022-12-18T05:30:15.197Z,28.00
2022-12-18T05:32:46.029Z,27.90
2022-12-18T05:35:16.825Z,28.80
2022-12-18T05:37:47.763Z,29.70
2022-12-18T05:40:18.642Z,30.10
2022-12-18T05:42:49.893Z,27.80
2022-12-18T05:45:21.630Z,28.40
2022-12-18T05:47:52.545Z,29.50
2022-12-18T05:50:23.177Z,29.00
2022-12-18T05:52:54.534Z,31.40
2022-12-18T05:55:25.463Z,29.00
2022-12-18T05:57:56.368Z,30.00
2022-12-18T06:00:26.964Z,32.90
2022-12-18T06:02:57.933Z,33.30
2022-12-18T06:05:29.356Z,32.50
2022-12-18T06:07:59.945Z,34.90
2022-12-18T06:10:30.521Z,34.20
2022-12-18T06:13:01.226Z,33.40
2022-12-18T06:15:32.088Z,30.60
2022-12-18T06:18:03.867Z,31.70
2022-12-18T06:20:34.730Z,30.80
2022-12-18T06:23:05.568Z,34.00
2022-12-18T06:25:36.013Z,29.30
2022-12-18T06:28:06.737Z,31.10
2022-12-18T06:30:37.693Z,32.50
2022-12-18T06:33:08.835Z,31.70
2022-12-18T06:35:39.185Z,29.80
2022-12-18T06:38:10.016Z,29.90
2022-12-18T06:40:41.218Z,32.20
2022-12-18T06:43:11.843Z,30.70
2022-12-18T06:45:42.635Z,28.40
2022-12-18T06:48:13.515Z,31.60
2022-12-18T06:50:45.788Z,31.40
2022-12-18T06:53:16.695Z,36.00
2022-12-18T06:55:47.156Z,31.40
2022-12-18T06:58:18.186Z,29.60
2022-12-18T07:00:48.764Z,33.70
2022-12-18T07:03:19.483Z,31.90
2022-12-18T07:05:50.187Z,31.70
2022-12-18T07:08:20.934Z,31.90
2022-12-18T07:10:55.919Z,30.30
2022-12-18T07:13:27.880Z,30.50
2022-12-18T07:16:06.801Z,31.80
2022-12-18T07:18:39.417Z,33.50
2022-12-18T07:21:11.412Z,28.40
2022-12-18T07:23:42.599Z,32.30
2022-12-18T07:26:14.316Z,32.20
2022-12-18T07:28:45.623Z,33.10
2022-12-18T07:31:17.469Z,35.10
2022-12-18T07:33:48.633Z,32.20
2022-12-18T07:36:19.479Z,34.40
2022-12-18T07:38:50.727Z,32.00
2022-12-18T07:41:21.667Z,34.00
2022-12-18T07:43:52.488Z,34.70
2022-12-18T07:46:23.131Z,34.10
2022-12-18T07:48:54.355Z,32.10
2022-12-18T07:51:24.943Z,32.60
2022-12-18T07:53:55.824Z,33.10
2022-12-18T07:56:28.086Z,30.70
2022-12-18T07:59:00.540Z,31.30
2022-12-18T08:01:31.497Z,32.00
2022-12-18T08:04:02.622Z,34.00
2022-12-18T08:06:33.283Z,34.60
2022-12-18T08:09:04.089Z,33.50
2022-12-18T08:11:34.844Z,31.90
2022-12-18T08:14:05.984Z,34.20
2022-12-18T08:16:36.560Z,35.00
2022-12-18T08:19:07.512Z,35.00
2022-12-18T08:21:38.330Z,32.60
2022-12-18T08:24:11.399Z,31.90
2022-12-18T08:26:45.556Z,31.40
2022-12-18T08:29:23.756Z,37.60
2022-12-18T08:31:54.498Z,34.90
2022-12-18T08:34:25.041Z,34.10
2022-12-18T08:36:55.531Z,32.40
2022-12-18T08:39:26.619Z,31.80
2022-12-18T08:42:15.486Z,37.00
2022-12-18T08:44:46.239Z,37.80
2022-12-18T08:47:16.856Z,32.60
2022-12-18T08:49:47.686Z,34.00
2022-12-18T08:52:18.313Z,33.90
2022-12-18T08:54:49.032Z,32.80
2022-12-18T08:57:19.644Z,32.20
2022-12-18T08:59:50.381Z,32.90
2022-12-18T09:02:21.239Z,32.80
2022-12-18T09:04:57.131Z,31.00
2022-12-18T09:07:28.244Z,32.30
2022-12-18T09:09:58.962Z,34.50
2022-12-18T09:12:29.638Z,28.00
2022-12-18T09:15:00.301Z,29.30
2022-12-18T09:17:30.927Z,29.60
2022-12-18T09:20:01.621Z,33.10
2022-12-18T09:22:32.182Z,31.30
2022-12-18T09:25:02.760Z,30.10
2022-12-18T09:27:33.540Z,31.70
2022-12-18T09:30:05.205Z,31.50
2022-12-18T09:32:35.647Z,31.30
2022-12-18T09:35:06.613Z,29.50
2022-12-18T09:37:37.133Z,31.00
2022-12-18T09:40:08.598Z,29.20
2022-12-18T09:42:39.132Z,31.50
2022-12-18T09:45:15.539Z,31.00
2022-12-18T09:47:47.941Z,29.90
2022-12-18T09:50:24.342Z,29.50
2022-12-18T09:52:56.696Z,30.50
2022-12-18T09:55:36.585Z,29.10
2022-12-18T09:58:12.557Z,32.40
2022-12-18T10:00:47.056Z,29.30
2022-12-18T10:03:17.776Z,33.90
2022-12-18T10:05:53.510Z,29.30
2022-12-18T10:08:27.515Z,32.30
2022-12-18T10:10:59.991Z,31.00
2022-12-18T10:13:34.202Z,32.10
2022-12-18T10:16:11.185Z,28.50
2022-12-18T10:18:51.319Z,30.80
2022-12-18T10:21:23.918Z,26.70
2022-12-18T10:23:58.482Z,31.80
2022-12-18T10:26:29.068Z,28.80
2022-12-18T10:29:05.348Z,26.70
2022-12-18T10:31:36.832Z,30.40
2022-12-18T10:34:09.986Z,25.10
2022-12-18T10:36:40.647Z,29.20
2022-12-18T10:39:21.409Z,23.50
2022-12-18T10:41:53.738Z,25.60
2022-12-18T10:44:24.879Z,24.50
2022-12-18T10:46:57.143Z,22.10
2022-12-18T10:49:29.119Z,24.40
2022-12-18T10:52:16.175Z,21.80
2022-12-18T10:54:50.852Z,23.10
2022-12-18T10:57:32.975Z,18.70
2022-12-18T11:00:22.620Z,15.10
2022-12-18T11:02:53.915Z,16.70
2022-12-18T11:05:30.976Z,13.80
2022-12-18T11:08:02.651Z,13.90
2022-12-18T11:10:34.891Z,13.90
2022-12-18T11:13:19.191Z,12.10
2022-12-18T11:15:50.442Z,14.40
2022-12-18T11:18:22.972Z,14.80
2022-12-18T11:20:58.549Z,15.40
2022-12-18T11:23:29.852Z,17.60
2022-12-18T11:26:01.848Z,16.90
2022-12-18T11:28:37.158Z,15.70
2022-12-18T11:31:32.503Z,13.90
2022-12-18T11:36:57.322Z,15.50
2022-12-18T11:39:33.241Z,20.30
2022-12-18T11:42:12.982Z,18.10
2022-12-18T11:44:47.950Z,18.40
2022-12-18T11:47:23.182Z,20.40
2022-12-18T11:49:55.022Z,19.80
2022-12-18T11:52:27.378Z,21.30
2022-12-18T11:55:00.411Z,17.20
2022-12-18T11:57:36.208Z,19.00
2022-12-18T12:00:13.509Z,20.40
2022-12-18T12:03:02.939Z,17.90
2022-12-18T12:05:39.397Z,18.50
2022-12-18T12:08:14.786Z,20.60
2022-12-18T12:10:50.182Z,18.00
2022-12-18T12:13:25.690Z,17.80
2022-12-18T12:16:01.503Z,16.90
2022-12-18T12:18:37.310Z,15.30
2022-12-18T12:21:10.012Z,18.20
2022-12-18T12:23:44.752Z,18.70
2022-12-18T12:26:18.386Z,16.70
2022-12-18T12:28:54.831Z,17.60
2022-12-18T12:31:30.803Z,16.20
2022-12-18T12:34:06.543Z,16.50
2022-12-18T12:36:43.489Z,16.80
2022-12-18T12:39:16.399Z,17.80
2022-12-18T12:44:35.874Z,15.40
2022-12-18T12:47:11.046Z,17.90
2022-12-18T12:49:50.005Z,16.70
2022-12-18T12:52:29.413Z,17.70
2022-12-18T12:55:01.219Z,17.30
2022-12-18T12:57:36.833Z,16.00
2022-12-18T13:00:12.111Z,18.00
2022-12-18T13:02:47.294Z,15.00
2022-12-18T13:05:22.807Z,18.20
2022-12-18T13:07:55.861Z,16.10
2022-12-18T13:10:35.673Z,18.60
2022-12-18T13:13:09.113Z,20.60
2022-12-18T13:15:42.097Z,18.00
2022-12-18T13:18:18.111Z,15.70
2022-12-18T13:20:55.237Z,17.10
2022-12-18T13:23:33.097Z,17.40
2022-12-18T13:26:28.796Z,17.50
2022-12-18T13:29:00.574Z,17.80
2022-12-18T13:31:48.753Z,18.70
2022-12-18T13:34:29.308Z,18.10
2022-12-18T13:37:20.715Z,17.80
2022-12-18T13:39:51.544Z,16.70
2022-12-18T13:42:53.087Z,17.00
2022-12-18T13:48:39.651Z,16.90
2022-12-18T13:51:12.189Z,17.60
2022-12-18T13:53:45.462Z,17.90
2022-12-18T13:56:19.314Z,20.00
2022-12-18T13:59:04.966Z,18.40
2022-12-18T14:01:36.447Z,18.60
2022-12-18T14:04:14.311Z,21.40
2022-12-18T14:06:46.687Z,21.30
2022-12-18T14:09:21.537Z,21.50
2022-12-18T14:11:52.688Z,21.60
2022-12-18T14:14:29.479Z,27.20
2022-12-18T14:17:04.540Z,27.70
2022-12-18T14:19:38.672Z,24.70
2022-12-18T14:22:14.159Z,24.00
2022-12-18T14:24:44.688Z,27.50
2022-12-18T14:27:22.374Z,25.80
2022-12-18T14:29:52.973Z,26.20
2022-12-18T14:32:24.695Z,28.70
2022-12-18T14:34:56.455Z,23.50
2022-12-18T14:37:28.640Z,27.60
2022-12-18T14:40:03.265Z,25.40
2022-12-18T14:42:38.825Z,25.80
2022-12-18T14:45:26.972Z,27.00
2022-12-18T14:47:57.858Z,30.20
2022-12-18T14:50:28.572Z,29.20
2022-12-18T14:52:59.267Z,28.80
2022-12-18T14:55:29.896Z,27.10
2022-12-18T14:58:01.104Z,26.60
2022-12-18T15:00:33.028Z,25.50
2022-12-18T15:03:03.816Z,29.80
2022-12-18T15:05:34.893Z,32.40
2022-12-18T15:08:19.281Z,32.00
2022-12-18T15:10:50.220Z,30.50
2022-12-18T15:13:24.400Z,34.20
2022-12-18T15:15:55.157Z,30.60
2022-12-18T15:18:30.289Z,31.80
2022-12-18T15:21:02.290Z,30.90
2022-12-18T15:23:36.419Z,31.20
2022-12-18T15:26:09.814Z,30.10
2022-12-18T15:28:45.440Z,36.60
2022-12-18T15:31:26.901Z,28.90
2022-12-18T15:34:07.864Z,32.30
2022-12-18T15:36:39.378Z,27.70
2022-12-18T15:39:13.068Z,30.40
2022-12-18T15:44:33.298Z,31.80
2022-12-18T15:47:04.037Z,30.30
2022-12-18T15:49:35.023Z,31.00
2022-12-18T15:52:06.148Z,30.30
2022-12-18T15:54:54.497Z,30.70
2022-12-18T15:57:27.973Z,32.90
2022-12-18T15:59:59.494Z,32.40
2022-12-18T16:02:30.343Z,32.10
2022-12-18T16:05:01.655Z,31.40
2022-12-18T16:07:32.326Z,31.70
2022-12-18T16:10:03.461Z,31.30
2022-12-18T16:12:34.502Z,30.90
2022-12-18T16:15:06.782Z,31.90
2022-12-18T16:17:38.066Z,31.60
2022-12-18T16:20:14.121Z,29.80
2022-12-18T16:22:47.178Z,32.00
2022-12-18T16:27:47.247Z,32.50
2022-12-18T16:30:20.759Z,33.00
2022-12-18T16:32:51.669Z,32.30
2022-12-18T16:35:22.885Z,30.00
2022-12-18T16:37:53.503Z,29.90
2022-12-18T16:40:24.564Z,32.70
2022-12-18T16:42:56.407Z,33.20
2022-12-18T16:45:34.377Z,34.60
2022-12-18T16:48:05.961Z,34.80
2022-12-18T16:50:36.904Z,30.90
2022-12-18T16:53:07.637Z,32.50
2022-12-18T16:55:38.914Z,31.60
2022-12-18T16:58:10.156Z,31.80
2022-12-18T17:00:43.359Z,31.00
2022-12-18T17:03:14.418Z,32.80
2022-12-18T17:05:51.509Z,32.40
2022-12-18T17:08:23.738Z,35.20
2022-12-18T17:10:54.569Z,35.20
2022-12-18T17:13:27.749Z,32.70
2022-12-18T17:16:03.464Z,34.10
2022-12-18T17:18:34.610Z,33.80
2022-12-18T17:21:07.536Z,34.40
2022-12-18T17:23:38.868Z,34.00
2022-12-18T17:26:10.765Z,35.40
2022-12-18T17:28:42.571Z,35.30
2022-12-18T17:31:14.713Z,36.10
2022-12-18T17:33:46.498Z,37.00
2022-12-18T17:36:18.154Z,35.80
2022-12-18T17:38:53.754Z,35.50
2022-12-18T17:41:25.401Z,34.90
2022-12-18T17:43:56.904Z,34.40
2022-12-18T17:46:29.200Z,37.00
2022-12-18T17:49:01.984Z,36.60
2022-12-18T17:51:33.511Z,37.60
2022-12-18T17:54:04.406Z,38.70
2022-12-18T17:56:35.600Z,38.00
2022-12-18T17:59:07.297Z,35.10
2022-12-18T18:01:44.101Z,35.80
2022-12-18T18:04:16.026Z,34.60
2022-12-18T18:06:46.740Z,39.60
2022-12-18T18:09:17.423Z,37.10
2022-12-18T18:12:06.120Z,39.20
2022-12-18T18:14:37.186Z,37.80
2022-12-18T18:17:08.422Z,43.40
2022-12-18T18:19:39.361Z,39.50
2022-12-18T18:22:11.286Z,39.90
2022-12-18T18:24:43.781Z,37.70
2022-12-18T18:27:15.429Z,35.40
2022-12-18T18:29:46.049Z,36.50
2022-12-18T18:32:17.045Z,40.00
2022-12-18T18:34:47.978Z,42.30
2022-12-18T18:37:19.273Z,39.90
2022-12-18T18:39:50.416Z,43.70
2022-12-18T18:42:21.453Z,40.10
2022-12-18T18:44:52.030Z,41.60
2022-12-18T18:47:23.261Z,41.00
2022-12-18T18:49:54.063Z,39.70
2022-12-18T18:52:25.595Z,40.80
2022-12-18T18:55:12.129Z,39.60
2022-12-18T18:57:44.592Z,39.90
2022-12-18T19:00:16.354Z,41.80
2022-12-18T19:02:47.775Z,36.80
2022-12-18T19:05:18.750Z,37.50
2022-12-18T19:07:49.847Z,35.50
2022-12-18T19:10:20.539Z,37.70
2022-12-18T19:13:09.368Z,38.90
2022-12-18T19:15:40.620Z,35.30
2022-12-18T19:18:11.494Z,35.90
2022-12-18T19:20:42.061Z,33.90
2022-12-18T19:23:12.993Z,36.30
2022-12-18T19:25:43.644Z,37.60
2022-12-18T19:28:22.120Z,39.30
2022-12-18T19:30:57.613Z,34.70
2022-12-18T19:33:43.223Z,40.20
2022-12-18T19:36:16.766Z,35.30
2022-12-18T19:38:48.079Z,39.10
2022-12-18T19:41:19.138Z,35.70
2022-12-18T19:43:50.877Z,35.50
2022-12-18T19:46:22.825Z,40.20
2022-12-18T19:48:53.866Z,35.00
2022-12-18T19:51:25.295Z,37.60
2022-12-18T19:53:59.063Z,35.80
2022-12-18T19:56:32.536Z,38.30
2022-12-18T19:59:04.208Z,36.00
2022-12-18T20:01:34.884Z,34.20
2022-12-18T20:04:06.146Z,38.60
2022-12-18T20:06:47.110Z,39.30
2022-12-18T20:09:18.545Z,38.50
2022-12-18T20:11:50.280Z,36.50
2022-12-18T20:14:23.593Z,38.90
2022-12-18T20:19:25.570Z,34.90
2022-12-18T20:21:57.120Z,39.30
2022-12-18T20:24:28.468Z,40.30
2022-12-18T20:26:59.199Z,44.50
2022-12-18T20:29:30.899Z,43.10
2022-12-18T20:32:01.434Z,44.30
2022-12-18T20:34:33.349Z,43.00
2022-12-18T20:37:04.563Z,46.30
2022-12-18T20:39:35.942Z,45.00
2022-12-18T20:42:06.779Z,42.90
2022-12-18T20:44:37.612Z,46.60
2022-12-18T20:47:08.809Z,45.90
2022-12-18T20:49:39.862Z,45.80
2022-12-18T20:52:15.751Z,45.70
2022-12-18T20:54:46.699Z,47.60
2022-12-18T20:57:17.316Z,47.20
2022-12-18T20:59:48.856Z,46.80
2022-12-18T21:02:19.434Z,48.70
2022-12-18T21:04:50.815Z,47.20
2022-12-18T21:07:21.276Z,49.10
2022-12-18T21:09:52.239Z,46.30
2022-12-18T21:12:58.188Z,45.20
2022-12-18T21:15:31.153Z,46.50
2022-12-18T21:18:01.995Z,50.30
2022-12-18T21:20:33.347Z,46.60
2022-12-18T21:23:15.768Z,46.70
2022-12-18T21:25:50.749Z,48.20
2022-12-18T21:28:26.427Z,47.60
2022-12-18T21:30:58.236Z,46.90
2022-12-18T21:33:28.795Z,44.30
2022-12-18T21:35:59.648Z,45.90
2022-12-18T21:38:30.381Z,42.60
2022-12-18T21:41:01.423Z,51.10
2022-12-18T21:43:49.879Z,39.20
2022-12-18T21:46:21.497Z,40.00
2022-12-18T21:48:51.960Z,42.80
2022-12-18T21:51:22.785Z,40.30
2022-12-18T21:53:53.229Z,44.60
2022-12-18T21:56:24.152Z,43.40
2022-12-18T21:58:56.778Z,39.30
2022-12-18T22:01:31.478Z,40.50
2022-12-18T22:04:08.250Z,40.60
2022-12-18T22:06:39.299Z,39.60
2022-12-18T22:09:10.185Z,41.90
2022-12-18T22:11:41.093Z,42.70
2022-12-18T22:14:12.082Z,40.80
2022-12-18T22:16:43.527Z,43.10
2022-12-18T22:19:14.190Z,38.80
2022-12-18T22:21:47.280Z,41.10
2022-12-18T22:24:18.747Z,35.60
2022-12-18T22:26:51.728Z,40.50
2022-12-18T22:29:40.382Z,36.00
2022-12-18T22:32:13.873Z,39.60
2022-12-18T22:34:45.796Z,36.50
2022-12-18T22:37:17.055Z,37.50
2022-12-18T22:39:47.982Z,39.70
2022-12-18T22:42:18.935Z,37.60
2022-12-18T22:44:49.454Z,34.80
2022-12-18T22:47:20.498Z,40.90
2022-12-18T22:49:50.820Z,33.40
2022-12-18T22:52:21.763Z,35.90
2022-12-18T22:54:54.512Z,34.50
2022-12-18T22:57:26.189Z,32.90
2022-12-18T22:59:56.611Z,32.80
2022-12-18T23:02:27.497Z,34.00
2022-12-18T23:04:58.086Z,32.40
2022-12-18T23:07:29.258Z,34.80
2022-12-18T23:10:01.081Z,34.00
2022-12-18T23:12:32.212Z,34.20
2022-12-18T23:15:05.484Z,30.80
2022-12-18T23:17:36.478Z,32.00
2022-12-18T23:20:07.550Z,31.90
2022-12-18T23:22:38.579Z,31.40
2022-12-18T23:25:09.679Z,36.70
2022-12-18T23:27:40.824Z,32.00
2022-12-18T23:30:12.235Z,34.80
2022-12-18T23:32:43.036Z,32.90
2022-12-18T23:35:14.245Z,34.70
2022-12-18T23:37:59.157Z,35.20
2022-12-18T23:43:01.542Z,34.30
2022-12-18T23:45:31.825Z,35.70
2022-12-18T23:48:02.858Z,34.20
2022-12-18T23:50:35.560Z,35.40
2022-12-18T23:53:06.729Z,36.10
2022-12-18T23:55:41.125Z,36.10
2022-12-18T23:58:16.937Z,35.30
